sensor_id;sensor_type;location;lat;lon;timestamp;pressure;altitude;pressure_sealevel;temperature;humidity
62978;BME280;49073;42.352;23.808;2022-09-09T00:01:43;95018.41;;;14.72;78.45
62978;BME280;49073;42.352;23.808;2022-09-09T00:05:16;95013.09;;;14.76;78.66
62978;BME280;49073;42.352;23.808;2022-09-09T00:08:22;95007.28;;;14.70;78.65
62978;BME280;49073;42.352;23.808;2022-09-09T00:11:33;95005.09;;;14.83;78.92
62978;BME280;49073;42.352;23.808;2022-09-09T00:21:06;95009.75;;;14.93;77.38
62978;BME280;49073;42.352;23.808;2022-09-09T00:27:36;95005.94;;;14.94;76.97
62978;BME280;49073;42.352;23.808;2022-09-09T00:30:41;95006.22;;;14.82;76.86
62978;BME280;49073;42.352;23.808;2022-09-09T00:33:43;95015.66;;;14.65;78.32
62978;BME280;49073;42.352;23.808;2022-09-09T00:36:43;95012.53;;;14.59;78.52
62978;BME280;49073;42.352;23.808;2022-09-09T00:39:46;95012.88;;;14.54;78.87
62978;BME280;49073;42.352;23.808;2022-09-09T00:56:37;94992.59;;;14.60;78.13
62978;BME280;49073;42.352;23.808;2022-09-09T00:59:52;94988.78;;;14.61;77.53
62978;BME280;49073;42.352;23.808;2022-09-09T01:02:56;94994.00;;;14.43;78.21
62978;BME280;49073;42.352;23.808;2022-09-09T01:06:13;94996.75;;;14.50;78.39
62978;BME280;49073;42.352;23.808;2022-09-09T01:09:18;94990.94;;;14.45;77.57
62978;BME280;49073;42.352;23.808;2022-09-09T01:12:48;94998.91;;;14.34;77.66
62978;BME280;49073;42.352;23.808;2022-09-09T01:15:53;94988.91;;;14.27;78.05
62978;BME280;49073;42.352;23.808;2022-09-09T01:18:54;94983.88;;;14.22;78.95
62978;BME280;49073;42.352;23.808;2022-09-09T01:22:26;94989.72;;;14.35;78.24
62978;BME280;49073;42.352;23.808;2022-09-09T01:29:10;94983.75;;;14.11;79.28
62978;BME280;49073;42.352;23.808;2022-09-09T01:32:44;94985.41;;;14.23;79.11
62978;BME280;49073;42.352;23.808;2022-09-09T01:36:02;94986.28;;;14.38;78.30
62978;BME280;49073;42.352;23.808;2022-09-09T01:39:05;94984.72;;;14.33;78.18
62978;BME280;49073;42.352;23.808;2022-09-09T01:42:08;94986.63;;;14.29;78.17
62978;BME280;49073;42.352;23.808;2022-09-09T01:45:09;94979.72;;;14.28;78.37
62978;BME280;49073;42.352;23.808;2022-09-09T01:48:10;94977.31;;;14.19;78.04
62978;BME280;49073;42.352;23.808;2022-09-09T01:51:10;94977.72;;;14.18;78.01
62978;BME280;49073;42.352;23.808;2022-09-09T01:54:11;94986.41;;;14.07;78.44
62978;BME280;49073;42.352;23.808;2022-09-09T01:57:19;94991.84;;;14.15;78.25
62978;BME280;49073;42.352;23.808;2022-09-09T02:00:22;94980.97;;;14.00;79.31
62978;BME280;49073;42.352;23.808;2022-09-09T02:03:26;94983.66;;;14.00;79.95
62978;BME280;49073;42.352;23.808;2022-09-09T02:06:36;94984.44;;;14.01;79.46
62978;BME280;49073;42.352;23.808;2022-09-09T02:09:40;94982.81;;;13.92;79.47
62978;BME280;49073;42.352;23.808;2022-09-09T02:12:50;94984.63;;;13.85;80.39
62978;BME280;49073;42.352;23.808;2022-09-09T02:15:57;94983.22;;;13.94;79.78
62978;BME280;49073;42.352;23.808;2022-09-09T02:19:08;94990.06;;;13.88;79.57
62978;BME280;49073;42.352;23.808;2022-09-09T02:22:11;94991.25;;;13.94;79.20
62978;BME280;49073;42.352;23.808;2022-09-09T02:25:14;94994.03;;;14.05;79.19
62978;BME280;49073;42.352;23.808;2022-09-09T02:28:17;94983.25;;;13.98;78.39
62978;BME280;49073;42.352;23.808;2022-09-09T02:31:22;94993.53;;;13.92;78.91
62978;BME280;49073;42.352;23.808;2022-09-09T02:34:25;94981.97;;;13.85;79.50
62978;BME280;49073;42.352;23.808;2022-09-09T02:37:33;94983.50;;;13.86;79.39
62978;BME280;49073;42.352;23.808;2022-09-09T02:40:35;94987.72;;;13.87;79.89
62978;BME280;49073;42.352;23.808;2022-09-09T02:43:36;94986.72;;;13.99;79.28
62978;BME280;49073;42.352;23.808;2022-09-09T02:53:21;94977.38;;;13.85;79.67
62978;BME280;49073;42.352;23.808;2022-09-09T02:56:27;94980.63;;;14.05;79.06
62978;BME280;49073;42.352;23.808;2022-09-09T02:59:30;94990.13;;;13.95;78.78
62978;BME280;49073;42.352;23.808;2022-09-09T03:02:32;94979.94;;;13.74;80.02
62978;BME280;49073;42.352;23.808;2022-09-09T03:05:33;94982.38;;;13.87;80.05
62978;BME280;49073;42.352;23.808;2022-09-09T03:08:34;94979.81;;;14.01;79.26
62978;BME280;49073;42.352;23.808;2022-09-09T03:11:34;94980.28;;;14.07;78.76
62978;BME280;49073;42.352;23.808;2022-09-09T03:14:35;94983.66;;;14.00;78.67
62978;BME280;49073;42.352;23.808;2022-09-09T03:17:36;94989.78;;;14.01;78.06
62978;BME280;49073;42.352;23.808;2022-09-09T03:20:38;94985.91;;;13.94;78.48
62978;BME280;49073;42.352;23.808;2022-09-09T03:23:38;94985.53;;;13.96;77.65
62978;BME280;49073;42.352;23.808;2022-09-09T03:26:39;94990.31;;;13.79;78.14
62978;BME280;49073;42.352;23.808;2022-09-09T03:29:40;94997.16;;;13.73;78.44
62978;BME280;49073;42.352;23.808;2022-09-09T03:32:41;94987.91;;;13.71;78.79
62978;BME280;49073;42.352;23.808;2022-09-09T03:35:46;94990.59;;;13.71;78.77
62978;BME280;49073;42.352;23.808;2022-09-09T03:38:48;94992.06;;;13.64;78.89
62978;BME280;49073;42.352;23.808;2022-09-09T03:41:50;94978.69;;;13.64;78.84
62978;BME280;49073;42.352;23.808;2022-09-09T03:44:50;94979.22;;;13.77;78.17
62978;BME280;49073;42.352;23.808;2022-09-09T03:47:51;94981.47;;;13.75;77.56
62978;BME280;49073;42.352;23.808;2022-09-09T03:50:53;94980.28;;;13.69;77.75
62978;BME280;49073;42.352;23.808;2022-09-09T03:53:54;94988.91;;;13.55;78.44
62978;BME280;49073;42.352;23.808;2022-09-09T03:56:57;94987.91;;;13.40;79.72
62978;BME280;49073;42.352;23.808;2022-09-09T03:59:58;94996.38;;;13.42;80.20
62978;BME280;49073;42.352;23.808;2022-09-09T04:03:01;94998.28;;;13.42;80.90
62978;BME280;49073;42.352;23.808;2022-09-09T04:06:03;94997.81;;;13.66;79.72
62978;BME280;49073;42.352;23.808;2022-09-09T04:09:04;94994.72;;;13.61;79.25
62978;BME280;49073;42.352;23.808;2022-09-09T04:12:05;94988.69;;;13.41;80.10
62978;BME280;49073;42.352;23.808;2022-09-09T04:15:06;94993.06;;;13.52;79.97
62978;BME280;49073;42.352;23.808;2022-09-09T04:18:07;94995.19;;;13.39;79.88
62978;BME280;49073;42.352;23.808;2022-09-09T04:21:09;94987.81;;;13.33;80.53
62978;BME280;49073;42.352;23.808;2022-09-09T04:24:10;94995.59;;;13.42;80.73
62978;BME280;49073;42.352;23.808;2022-09-09T04:27:11;94994.59;;;13.53;80.20
62978;BME280;49073;42.352;23.808;2022-09-09T04:30:12;94998.53;;;13.60;80.05
62978;BME280;49073;42.352;23.808;2022-09-09T04:33:14;95013.47;;;13.61;80.23
62978;BME280;49073;42.352;23.808;2022-09-09T04:36:15;95013.06;;;13.62;81.22
62978;BME280;49073;42.352;23.808;2022-09-09T04:39:16;95017.03;;;13.72;81.98
62978;BME280;49073;42.352;23.808;2022-09-09T04:42:16;95008.28;;;13.79;82.30
62978;BME280;49073;42.352;23.808;2022-09-09T04:45:19;95008.09;;;13.95;82.55
62978;BME280;49073;42.352;23.808;2022-09-09T04:48:20;95006.69;;;14.08;83.12
62978;BME280;49073;42.352;23.808;2022-09-09T04:51:22;94999.78;;;14.04;83.58
62978;BME280;49073;42.352;23.808;2022-09-09T04:54:22;95002.91;;;14.13;83.83
62978;BME280;49073;42.352;23.808;2022-09-09T04:57:23;95007.84;;;14.07;83.85
62978;BME280;49073;42.352;23.808;2022-09-09T05:00:24;95009.81;;;14.14;83.60
62978;BME280;49073;42.352;23.808;2022-09-09T05:03:25;94994.09;;;14.13;83.77
62978;BME280;49073;42.352;23.808;2022-09-09T05:06:26;94988.78;;;14.16;84.24
62978;BME280;49073;42.352;23.808;2022-09-09T05:09:27;95002.63;;;14.22;84.15
62978;BME280;49073;42.352;23.808;2022-09-09T05:12:28;95008.00;;;14.25;83.87
62978;BME280;49073;42.352;23.808;2022-09-09T05:15:28;95021.41;;;14.25;84.19
62978;BME280;49073;42.352;23.808;2022-09-09T05:18:29;95015.38;;;14.32;84.86
62978;BME280;49073;42.352;23.808;2022-09-09T05:21:30;95004.59;;;14.29;85.64
62978;BME280;49073;42.352;23.808;2022-09-09T05:24:31;94991.69;;;14.42;84.61
62978;BME280;49073;42.352;23.808;2022-09-09T05:27:34;94992.13;;;14.47;84.20
62978;BME280;49073;42.352;23.808;2022-09-09T05:30:34;94995.28;;;14.57;84.13
62978;BME280;49073;42.352;23.808;2022-09-09T05:33:35;95003.00;;;14.65;83.86
62978;BME280;49073;42.352;23.808;2022-09-09T05:36:36;94998.41;;;14.69;83.49
62978;BME280;49073;42.352;23.808;2022-09-09T05:39:36;94982.00;;;14.71;83.36
62978;BME280;49073;42.352;23.808;2022-09-09T05:42:37;94981.41;;;15.00;83.12
62978;BME280;49073;42.352;23.808;2022-09-09T05:45:38;94980.31;;;15.08;82.51
62978;BME280;49073;42.352;23.808;2022-09-09T05:48:40;94972.69;;;15.13;83.55
62978;BME280;49073;42.352;23.808;2022-09-09T05:51:41;94973.47;;;15.21;84.55
62978;BME280;49073;42.352;23.808;2022-09-09T05:54:43;94976.19;;;15.28;84.26
62978;BME280;49073;42.352;23.808;2022-09-09T05:57:48;94980.09;;;15.38;84.15
62978;BME280;49073;42.352;23.808;2022-09-09T06:00:49;94982.81;;;15.42;83.96
62978;BME280;49073;42.352;23.808;2022-09-09T06:03:51;94979.78;;;15.54;83.15
62978;BME280;49073;42.352;23.808;2022-09-09T06:06:52;94977.50;;;15.64;83.68
62978;BME280;49073;42.352;23.808;2022-09-09T06:09:52;94982.53;;;15.65;82.98
62978;BME280;49073;42.352;23.808;2022-09-09T06:12:53;94980.69;;;15.88;82.08
62978;BME280;49073;42.352;23.808;2022-09-09T06:15:53;94983.41;;;15.98;81.41
62978;BME280;49073;42.352;23.808;2022-09-09T06:18:55;94983.03;;;16.00;81.24
62978;BME280;49073;42.352;23.808;2022-09-09T06:21:56;94981.53;;;16.13;80.66
62978;BME280;49073;42.352;23.808;2022-09-09T06:24:57;94974.25;;;16.25;80.58
62978;BME280;49073;42.352;23.808;2022-09-09T06:27:58;94976.56;;;16.44;80.54
62978;BME280;49073;42.352;23.808;2022-09-09T06:31:04;94980.03;;;16.45;80.43
62978;BME280;49073;42.352;23.808;2022-09-09T06:34:06;94980.81;;;16.53;80.00
62978;BME280;49073;42.352;23.808;2022-09-09T06:37:06;94996.16;;;16.60;79.83
62978;BME280;49073;42.352;23.808;2022-09-09T06:40:09;94988.47;;;16.80;78.27
62978;BME280;49073;42.352;23.808;2022-09-09T06:43:09;94979.63;;;16.86;75.65
62978;BME280;49073;42.352;23.808;2022-09-09T06:46:15;94981.16;;;16.95;75.69
62978;BME280;49073;42.352;23.808;2022-09-09T06:49:16;94979.63;;;17.12;75.10
62978;BME280;49073;42.352;23.808;2022-09-09T06:52:17;94984.94;;;17.34;73.79
62978;BME280;49073;42.352;23.808;2022-09-09T06:55:18;95000.31;;;17.44;71.28
62978;BME280;49073;42.352;23.808;2022-09-09T06:58:20;94985.69;;;17.45;70.82
62978;BME280;49073;42.352;23.808;2022-09-09T07:01:24;94983.72;;;17.56;70.30
62978;BME280;49073;42.352;23.808;2022-09-09T07:04:25;94982.56;;;17.57;69.15
62978;BME280;49073;42.352;23.808;2022-09-09T07:07:25;94990.97;;;17.67;68.30
62978;BME280;49073;42.352;23.808;2022-09-09T07:10:27;94990.56;;;17.79;68.65
62978;BME280;49073;42.352;23.808;2022-09-09T07:13:27;94985.16;;;17.83;67.02
62978;BME280;49073;42.352;23.808;2022-09-09T07:16:27;94981.63;;;17.97;68.04
62978;BME280;49073;42.352;23.808;2022-09-09T07:19:29;94982.75;;;18.07;66.71
62978;BME280;49073;42.352;23.808;2022-09-09T07:22:29;94985.84;;;18.05;66.25
62978;BME280;49073;42.352;23.808;2022-09-09T07:25:30;94988.13;;;18.10;65.99
62978;BME280;49073;42.352;23.808;2022-09-09T07:28:30;94981.50;;;18.18;65.90
62978;BME280;49073;42.352;23.808;2022-09-09T07:31:34;94973.78;;;18.24;66.44
62978;BME280;49073;42.352;23.808;2022-09-09T07:34:35;94986.03;;;18.36;66.43
62978;BME280;49073;42.352;23.808;2022-09-09T07:37:36;94978.97;;;18.53;66.49
62978;BME280;49073;42.352;23.808;2022-09-09T07:40:37;94983.53;;;18.64;66.88
62978;BME280;49073;42.352;23.808;2022-09-09T07:43:42;94977.63;;;18.76;67.02
62978;BME280;49073;42.352;23.808;2022-09-09T07:46:43;94977.56;;;18.87;65.17
62978;BME280;49073;42.352;23.808;2022-09-09T07:49:45;94982.88;;;18.94;64.42
62978;BME280;49073;42.352;23.808;2022-09-09T07:52:46;94974.88;;;18.83;64.58
62978;BME280;49073;42.352;23.808;2022-09-09T07:55:46;94976.72;;;18.97;66.51
62978;BME280;49073;42.352;23.808;2022-09-09T07:58:47;94973.03;;;19.18;65.38
62978;BME280;49073;42.352;23.808;2022-09-09T08:01:50;94972.97;;;19.26;64.43
62978;BME280;49073;42.352;23.808;2022-09-09T08:04:53;94968.91;;;19.45;62.88
62978;BME280;49073;42.352;23.808;2022-09-09T08:07:53;94969.53;;;19.56;64.13
62978;BME280;49073;42.352;23.808;2022-09-09T08:11:06;94966.75;;;19.63;62.29
62978;BME280;49073;42.352;23.808;2022-09-09T08:14:09;94974.66;;;19.78;62.56
62978;BME280;49073;42.352;23.808;2022-09-09T08:17:10;94973.75;;;19.88;62.94
62978;BME280;49073;42.352;23.808;2022-09-09T08:20:10;94968.69;;;19.94;62.35
62978;BME280;49073;42.352;23.808;2022-09-09T08:23:11;94967.03;;;20.04;62.51
62978;BME280;49073;42.352;23.808;2022-09-09T08:26:13;94960.44;;;20.05;61.97
62978;BME280;49073;42.352;23.808;2022-09-09T08:29:15;94972.50;;;20.28;62.50
62978;BME280;49073;42.352;23.808;2022-09-09T08:32:16;94968.75;;;20.45;62.23
62978;BME280;49073;42.352;23.808;2022-09-09T08:35:16;94957.56;;;20.43;61.44
62978;BME280;49073;42.352;23.808;2022-09-09T08:38:17;94970.03;;;20.61;62.54
62978;BME280;49073;42.352;23.808;2022-09-09T08:50:39;94955.16;;;21.41;60.87
62978;BME280;49073;42.352;23.808;2022-09-09T08:53:47;94936.09;;;21.44;58.78
62978;BME280;49073;42.352;23.808;2022-09-09T08:56:48;94944.25;;;21.64;59.80
62978;BME280;49073;42.352;23.808;2022-09-09T08:59:50;94942.50;;;21.54;58.27
62978;BME280;49073;42.352;23.808;2022-09-09T09:06:01;94930.94;;;21.50;58.76
62978;BME280;49073;42.352;23.808;2022-09-09T09:09:15;94930.25;;;21.86;59.17
62978;BME280;49073;42.352;23.808;2022-09-09T09:12:24;94935.13;;;22.12;55.75
62978;BME280;49073;42.352;23.808;2022-09-09T09:15:31;94942.06;;;22.13;55.60
62978;BME280;49073;42.352;23.808;2022-09-09T09:18:36;94929.78;;;22.24;55.34
62978;BME280;49073;42.352;23.808;2022-09-09T09:21:48;94944.47;;;22.27;54.96
62978;BME280;49073;42.352;23.808;2022-09-09T09:24:59;94931.75;;;22.57;55.39
62978;BME280;49073;42.352;23.808;2022-09-09T09:28:10;94939.47;;;22.75;53.80
62978;BME280;49073;42.352;23.808;2022-09-09T09:31:13;94941.44;;;22.75;53.77
62978;BME280;49073;42.352;23.808;2022-09-09T09:34:13;94941.88;;;22.57;53.17
62978;BME280;49073;42.352;23.808;2022-09-09T09:37:28;94928.44;;;22.66;53.75
62978;BME280;49073;42.352;23.808;2022-09-09T09:40:29;94924.16;;;22.81;57.17
62978;BME280;49073;42.352;23.808;2022-09-09T09:43:32;94915.84;;;23.18;54.61
62978;BME280;49073;42.352;23.808;2022-09-09T09:46:33;94917.75;;;23.34;52.96
62978;BME280;49073;42.352;23.808;2022-09-09T09:49:33;94919.88;;;23.43;51.99
62978;BME280;49073;42.352;23.808;2022-09-09T09:52:35;94916.53;;;23.65;53.51
62978;BME280;49073;42.352;23.808;2022-09-09T09:55:49;94919.03;;;23.59;51.38
62978;BME280;49073;42.352;23.808;2022-09-09T09:58:51;94915.69;;;23.81;51.84
62978;BME280;49073;42.352;23.808;2022-09-09T10:01:53;94921.00;;;23.97;53.21
62978;BME280;49073;42.352;23.808;2022-09-09T10:05:04;94916.34;;;24.11;50.64
62978;BME280;49073;42.352;23.808;2022-09-09T10:18:01;94913.31;;;24.22;49.85
62978;BME280;49073;42.352;23.808;2022-09-09T10:31:38;94904.25;;;24.38;50.39
62978;BME280;49073;42.352;23.808;2022-09-09T10:38:36;94903.69;;;23.78;50.25
62978;BME280;49073;42.352;23.808;2022-09-09T10:45:29;94907.69;;;23.48;51.86
62978;BME280;49073;42.352;23.808;2022-09-09T10:52:05;94919.03;;;23.59;51.12
62978;BME280;49073;42.352;23.808;2022-09-09T10:55:17;94925.22;;;23.60;52.06
62978;BME280;49073;42.352;23.808;2022-09-09T10:59:02;94929.59;;;23.70;51.14
62978;BME280;49073;42.352;23.808;2022-09-09T11:01:47;94917.41;;;23.75;51.46
62978;BME280;49073;42.352;23.808;2022-09-09T11:05:04;94915.31;;;23.66;50.82
62978;BME280;49073;42.352;23.808;2022-09-09T11:08:12;94919.38;;;23.74;50.46
62978;BME280;49073;42.352;23.808;2022-09-09T11:11:27;94908.28;;;23.68;51.37
62978;BME280;49073;42.352;23.808;2022-09-09T11:14:36;94902.97;;;24.04;51.12
62978;BME280;49073;42.352;23.808;2022-09-09T11:17:48;94899.59;;;24.13;49.74
62978;BME280;49073;42.352;23.808;2022-09-09T11:20:55;94890.31;;;24.10;49.60
62978;BME280;49073;42.352;23.808;2022-09-09T11:24:08;94896.84;;;23.87;50.15
62978;BME280;49073;42.352;23.808;2022-09-09T11:28:17;94905.34;;;23.76;50.30
62978;BME280;49073;42.352;23.808;2022-09-09T11:37:59;94891.16;;;23.55;51.80
62978;BME280;49073;42.352;23.808;2022-09-09T11:41:04;94895.38;;;23.43;51.70
62978;BME280;49073;42.352;23.808;2022-09-09T11:44:11;94899.78;;;23.24;51.88
62978;BME280;49073;42.352;23.808;2022-09-09T11:47:26;94898.94;;;23.27;52.94
62978;BME280;49073;42.352;23.808;2022-09-09T11:50:33;94894.28;;;23.41;53.59
62978;BME280;49073;42.352;23.808;2022-09-09T11:53:36;94888.66;;;23.61;52.23
62978;BME280;49073;42.352;23.808;2022-09-09T11:56:49;94888.00;;;23.57;52.22
62978;BME280;49073;42.352;23.808;2022-09-09T11:59:52;94891.41;;;23.74;51.85
62978;BME280;49073;42.352;23.808;2022-09-09T12:02:53;94893.22;;;23.64;50.75
62978;BME280;49073;42.352;23.808;2022-09-09T12:05:53;94890.81;;;23.53;52.43
62978;BME280;49073;42.352;23.808;2022-09-09T12:09:06;94885.41;;;23.66;53.17
62978;BME280;49073;42.352;23.808;2022-09-09T12:18:35;94874.63;;;23.75;51.71
62978;BME280;49073;42.352;23.808;2022-09-09T12:21:51;94866.16;;;23.86;51.96
62978;BME280;49073;42.352;23.808;2022-09-09T12:32:22;94846.69;;;23.88;52.96
62978;BME280;49073;42.352;23.808;2022-09-09T12:35:27;94850.34;;;23.68;53.18
62978;BME280;49073;42.352;23.808;2022-09-09T12:38:37;94849.69;;;23.51;52.87
62978;BME280;49073;42.352;23.808;2022-09-09T12:41:38;94833.47;;;23.34;53.79
62978;BME280;49073;42.352;23.808;2022-09-09T12:44:50;94836.31;;;23.31;53.21
62978;BME280;49073;42.352;23.808;2022-09-09T12:47:55;94833.00;;;23.23;53.17
62978;BME280;49073;42.352;23.808;2022-09-09T12:50:57;94828.38;;;23.07;53.94
62978;BME280;49073;42.352;23.808;2022-09-09T12:54:00;94828.63;;;23.13;54.57
62978;BME280;49073;42.352;23.808;2022-09-09T12:57:01;94821.47;;;23.19;54.42
62978;BME280;49073;42.352;23.808;2022-09-09T13:00:21;94804.63;;;23.24;53.97
62978;BME280;49073;42.352;23.808;2022-09-09T13:03:23;94806.50;;;23.40;54.28
62978;BME280;49073;42.352;23.808;2022-09-09T13:06:27;94803.72;;;23.14;53.43
62978;BME280;49073;42.352;23.808;2022-09-09T13:09:28;94792.19;;;23.10;53.66
62978;BME280;49073;42.352;23.808;2022-09-09T13:12:29;94798.41;;;23.10;54.10
62978;BME280;49073;42.352;23.808;2022-09-09T13:15:29;94804.13;;;23.00;53.96
62978;BME280;49073;42.352;23.808;2022-09-09T13:18:35;94804.91;;;23.00;55.35
62978;BME280;49073;42.352;23.808;2022-09-09T13:21:39;94807.94;;;23.02;55.63
62978;BME280;49073;42.352;23.808;2022-09-09T13:24:39;94800.94;;;22.88;54.44
62978;BME280;49073;42.352;23.808;2022-09-09T13:27:41;94812.91;;;22.91;55.79
62978;BME280;49073;42.352;23.808;2022-09-09T13:30:43;94814.06;;;23.19;55.97
62978;BME280;49073;42.352;23.808;2022-09-09T13:33:44;94811.53;;;23.12;55.00
62978;BME280;49073;42.352;23.808;2022-09-09T13:36:47;94810.97;;;22.91;55.49
62978;BME280;49073;42.352;23.808;2022-09-09T13:39:52;94808.00;;;22.86;55.58
62978;BME280;49073;42.352;23.808;2022-09-09T13:42:57;94803.00;;;22.84;54.93
62978;BME280;49073;42.352;23.808;2022-09-09T13:46:00;94800.75;;;22.95;56.31
62978;BME280;49073;42.352;23.808;2022-09-09T13:52:12;94799.72;;;22.76;56.28
62978;BME280;49073;42.352;23.808;2022-09-09T13:55:13;94798.53;;;22.77;56.56
62978;BME280;49073;42.352;23.808;2022-09-09T13:58:16;94789.50;;;22.80;56.23
62978;BME280;49073;42.352;23.808;2022-09-09T14:01:21;94791.34;;;22.84;57.21
62978;BME280;49073;42.352;23.808;2022-09-09T14:04:23;94794.41;;;22.86;56.55
62978;BME280;49073;42.352;23.808;2022-09-09T14:07:23;94796.38;;;22.85;56.20
62978;BME280;49073;42.352;23.808;2022-09-09T14:10:26;94790.09;;;22.88;57.81
62978;BME280;49073;42.352;23.808;2022-09-09T14:13:26;94788.22;;;22.85;57.02
62978;BME280;49073;42.352;23.808;2022-09-09T14:16:29;94790.50;;;22.87;57.12
62978;BME280;49073;42.352;23.808;2022-09-09T14:19:30;94779.97;;;22.89;56.16
62978;BME280;49073;42.352;23.808;2022-09-09T14:22:32;94772.78;;;22.95;57.04
62978;BME280;49073;42.352;23.808;2022-09-09T14:25:32;94760.41;;;22.94;56.16
62978;BME280;49073;42.352;23.808;2022-09-09T14:28:35;94759.22;;;22.95;56.75
62978;BME280;49073;42.352;23.808;2022-09-09T14:31:36;94746.06;;;22.93;55.81
62978;BME280;49073;42.352;23.808;2022-09-09T14:34:36;94745.53;;;22.99;55.48
62978;BME280;49073;42.352;23.808;2022-09-09T14:37:37;94750.53;;;23.00;56.60
62978;BME280;49073;42.352;23.808;2022-09-09T14:40:39;94754.31;;;22.90;55.97
62978;BME280;49073;42.352;23.808;2022-09-09T14:43:40;94752.25;;;22.94;57.28
62978;BME280;49073;42.352;23.808;2022-09-09T14:46:41;94751.75;;;22.99;57.36
62978;BME280;49073;42.352;23.808;2022-09-09T14:49:42;94753.72;;;23.12;56.75
62978;BME280;49073;42.352;23.808;2022-09-09T14:52:43;94741.50;;;23.16;55.85
62978;BME280;49073;42.352;23.808;2022-09-09T14:55:44;94746.75;;;23.10;57.48
62978;BME280;49073;42.352;23.808;2022-09-09T14:58:47;94748.00;;;22.93;57.40
62978;BME280;49073;42.352;23.808;2022-09-09T15:01:48;94763.13;;;22.94;57.76
62978;BME280;49073;42.352;23.808;2022-09-09T15:04:49;94762.78;;;22.92;57.69
62978;BME280;49073;42.352;23.808;2022-09-09T15:07:53;94763.25;;;23.03;57.62
62978;BME280;49073;42.352;23.808;2022-09-09T15:11:01;94759.88;;;23.12;57.83
62978;BME280;49073;42.352;23.808;2022-09-09T15:14:01;94764.25;;;23.22;57.55
62978;BME280;49073;42.352;23.808;2022-09-09T15:17:02;94756.97;;;23.19;57.31
62978;BME280;49073;42.352;23.808;2022-09-09T15:20:04;94756.53;;;23.21;57.96
62978;BME280;49073;42.352;23.808;2022-09-09T15:23:06;94754.69;;;23.18;57.64
62978;BME280;49073;42.352;23.808;2022-09-09T15:26:09;94756.88;;;23.23;57.76
62978;BME280;49073;42.352;23.808;2022-09-09T15:29:10;94760.13;;;23.18;58.44
62978;BME280;49073;42.352;23.808;2022-09-09T15:32:11;94766.44;;;23.15;58.92
62978;BME280;49073;42.352;23.808;2022-09-09T15:35:11;94764.38;;;23.19;57.26
62978;BME280;49073;42.352;23.808;2022-09-09T15:38:12;94764.25;;;23.09;57.85
62978;BME280;49073;42.352;23.808;2022-09-09T15:41:18;94765.44;;;23.08;56.72
62978;BME280;49073;42.352;23.808;2022-09-09T15:44:18;94762.69;;;22.95;57.85
62978;BME280;49073;42.352;23.808;2022-09-09T15:47:19;94761.25;;;22.78;57.55
62978;BME280;49073;42.352;23.808;2022-09-09T15:50:20;94760.06;;;22.79;58.29
62978;BME280;49073;42.352;23.808;2022-09-09T15:53:21;94745.81;;;22.75;58.74
62978;BME280;49073;42.352;23.808;2022-09-09T15:56:22;94751.00;;;22.69;58.69
62978;BME280;49073;42.352;23.808;2022-09-09T15:59:24;94755.44;;;22.63;58.66
62978;BME280;49073;42.352;23.808;2022-09-09T16:02:25;94757.19;;;22.57;59.24
62978;BME280;49073;42.352;23.808;2022-09-09T16:05:26;94758.91;;;22.63;62.58
62978;BME280;49073;42.352;23.808;2022-09-09T16:08:33;94750.03;;;22.63;62.68
62978;BME280;49073;42.352;23.808;2022-09-09T16:11:36;94751.94;;;22.49;62.85
62978;BME280;49073;42.352;23.808;2022-09-09T16:14:37;94746.69;;;22.42;64.34
62978;BME280;49073;42.352;23.808;2022-09-09T16:21:46;94741.66;;;22.11;65.82
62978;BME280;49073;42.352;23.808;2022-09-09T16:24:52;94749.63;;;22.02;66.03
62978;BME280;49073;42.352;23.808;2022-09-09T16:27:53;94745.75;;;21.86;66.08
62978;BME280;49073;42.352;23.808;2022-09-09T16:30:53;94747.94;;;21.75;66.81
62978;BME280;49073;42.352;23.808;2022-09-09T16:33:54;94744.66;;;21.67;67.23
62978;BME280;49073;42.352;23.808;2022-09-09T16:36:55;94745.13;;;21.45;67.37
62978;BME280;49073;42.352;23.808;2022-09-09T16:39:56;94740.03;;;21.31;69.10
62978;BME280;49073;42.352;23.808;2022-09-09T16:42:57;94740.13;;;21.27;69.34
62978;BME280;49073;42.352;23.808;2022-09-09T16:45:58;94743.72;;;21.04;70.03
62978;BME280;49073;42.352;23.808;2022-09-09T16:49:01;94739.47;;;21.03;69.38
62978;BME280;49073;42.352;23.808;2022-09-09T16:52:02;94732.84;;;21.24;68.59
62978;BME280;49073;42.352;23.808;2022-09-09T16:55:03;94745.25;;;21.05;68.84
62978;BME280;49073;42.352;23.808;2022-09-09T16:58:05;94736.91;;;20.75;70.95
62978;BME280;49073;42.352;23.808;2022-09-09T17:01:05;94746.56;;;20.76;70.67
62978;BME280;49073;42.352;23.808;2022-09-09T17:04:08;94746.22;;;20.74;69.98
62978;BME280;49073;42.352;23.808;2022-09-09T17:07:10;94755.88;;;20.55;70.97
62978;BME280;49073;42.352;23.808;2022-09-09T17:10:11;94751.00;;;20.46;70.80
62978;BME280;49073;42.352;23.808;2022-09-09T17:13:12;94747.94;;;20.44;70.46
62978;BME280;49073;42.352;23.808;2022-09-09T17:16:16;94756.16;;;20.41;70.87
62978;BME280;49073;42.352;23.808;2022-09-09T17:19:17;94746.22;;;20.34;71.25
62978;BME280;49073;42.352;23.808;2022-09-09T17:22:18;94754.47;;;20.27;71.55
62978;BME280;49073;42.352;23.808;2022-09-09T17:25:20;94762.16;;;20.28;71.56
62978;BME280;49073;42.352;23.808;2022-09-09T17:28:23;94762.22;;;20.25;71.29
62978;BME280;49073;42.352;23.808;2022-09-09T17:31:28;94773.41;;;20.03;71.63
62978;BME280;49073;42.352;23.808;2022-09-09T17:34:29;94774.41;;;20.13;71.47
62978;BME280;49073;42.352;23.808;2022-09-09T17:37:30;94777.94;;;20.10;71.34
62978;BME280;49073;42.352;23.808;2022-09-09T17:40:31;94778.66;;;19.90;72.36
62978;BME280;49073;42.352;23.808;2022-09-09T17:43:32;94777.38;;;19.98;71.89
62978;BME280;49073;42.352;23.808;2022-09-09T17:46:35;94773.56;;;19.68;72.41